Airfield :
LOGIN :

Register | Disclaimer

   EN    FR    IT 

 










Legend :    VFR   Marginal VFR   IFR   Intensive IFR   Very Intensive IFR
Visi :
Ceiling :
>= 8 km
>= 3000ft
5 to 8 km
1000 to 3000 ft
1500m to 5 km
500 to 1000 ft
800 to 1500m
200 to 500 ft
< 800m
< 200 ft
Symbols :   Thunderstorms  Fog  Heavy snow  Heavy precipitations  Wind > 20 kt
SIGMETs :     Misc.  Thunderstorms  Icing  Turbulence  Mountain Waves  Volcanic Ashes






- Airport Elevation : 36 ft
- IATA code : RIX


EVRA - Riga

CURRENT METAR :
  • 121020Z 14011KT 9999 OVC008 04/04 Q1016 R18/190095 BECMG OVC010

EXPIRED METARs :
  • 120950Z 14009KT 9999 OVC007 04/04 Q1017 R18/190095 BECMG OVC010
  • 120920Z 13009KT 9999 OVC004 03/03 Q1017 R18/190095 BECMG OVC006
  • 120850Z 14007KT 9999 OVC002 03/03 Q1017 R18/190095 BECMG SCT002 OVC005
  • 120820Z 14007KT 100V160 2000 BR OVC001 02/02 Q1017 R18/190095 BECMG 3000
  • 120750Z 13007KT 100V160 1600 1300 R18/P2000U BR BKN001 OVC005 01/01 Q1017 R18/190095 BECMG 3000

TAF TAF EVRA
Valid from the 12 at 09:00 until the 13 at 09:00 UTC


120802Z 1209/1309 14010KT 3000 BR BKN001 OVC005
BECMG 1209/1211 9000 NSW BKN020
TEMPO 1211/1215 16015G26KT
TEMPO 1300/1309 BKN010 BKN020



MET'MAP, your aeronautical weather chart ! - Copyright ORBIFLY December 2007 - Disclaimer

ORBIFLY MET'MAP TEAM :

Programming & Development : Alexandra Zaïnal
Concept & Development : Baudouin d'Aumeries
Co-Development & Prog : Marc-Olivier Méhu
Technical & hardware support : Manuel Goepfert

Contact : metmap@orbifly.com




SOURCES & CREDITS :

   NOAA